Latest Weather Observations for Kingaroy

IDQ60901

Issued at 6:11 am EST Thursday 11 February 2016 (issued every 10 minutes, with the page automatically refreshed every 10 minutes)

About weather observations | Map of Brisbane area stations | Latest observations for Brisbane area | Other Formats
Station Details ID: 040922 Name: KINGAROY AIRPORT Lat: -26.57 Lon: 151.84 Height: 433.67 m
Data from the previous 72 hours. | See also: Recent months at Kingaroy
Date/Time
EST
Tmp

°C
App
Tmp
°C
Dew
Point
°C
Rel
Hum
%
Delta-T

°C
Wind Press
QNH
hPa
Press
MSL
hPa
Rain
since
9 am
mm
Dir
 
Spd
km/h
Gust
km/h
Spd
kts
Gust
kts
11/06:00am 18.6 18.1 16.9 90 1.0 SE 15 24 8 13 1013.8 1011.4 0.0
11/05:30am 17.7 16.7 16.7 94 0.6 ESE 17 24 9 13 1013.6 1011.2 0.0
11/05:00am 17.4 17.2 16.6 95 0.5 ESE 13 19 7 10 1013.4 1011.0 0.0
11/04:30am 16.3 16.4 15.5 95 0.5 S 9 11 5 6 1013.3 1010.9 0.0
11/04:00am 16.8 17.0 15.8 94 0.6 SSE 9 13 5 7 1013.2 1010.8 0.0
11/03:30am 16.7 16.4 15.4 92 0.8 S 11 13 6 7 1013.0 1010.6 0.0
11/03:00am 18.4 18.6 16.7 90 1.0 SE 11 19 6 10 1013.0 1010.6 0.0
11/02:30am 18.6 18.9 17.1 91 0.9 ESE 11 17 6 9 1013.0 1010.6 0.0
11/02:00am 18.4 19.5 17.1 92 0.8 ESE 7 11 4 6 1013.4 1011.0 0.0
11/01:30am 18.3 19.5 16.8 91 0.9 ESE 6 9 3 5 1013.7 1011.3 0.0
11/01:00am 18.6 19.9 17.1 91 0.9 ESE 6 13 3 7 1014.0 1011.5 0.0
11/12:30am 18.8 19.8 16.9 89 1.2 E 7 9 4 5 1014.3 1011.8 0.0
11/12:00am 19.2 20.0 17.3 89 1.2 ESE 9 15 5 8 1014.6 1012.1 0.0
 
Date/Time
EST
Tmp

°C
App
Tmp
°C
Dew
Point
°C
Rel
Hum
%
Delta-T

°C
Wind Press
QNH
hPa
Press
MSL
hPa
Rain
since
9 am
mm
Dir
 
Spd
km/h
Gust
km/h
Spd
kts
Gust
kts
10/11:30pm 18.7 18.9 16.7 88 1.2 SSE 11 13 6 7 1014.8 1012.4 0.0
10/11:00pm 19.7 20.5 17.3 86 1.5 SE 9 15 5 8 1015.1 1012.7 0.0
10/10:30pm 19.3 19.9 16.9 86 1.5 ESE 9 15 5 8 1015.1 1012.7 0.0
10/10:00pm 19.8 21.8 17.0 84 1.7 SSE 2 7 1 4 1015.2 1012.8 0.0
10/09:30pm 20.1 21.7 16.9 82 2.0 ESE 4 7 2 4 1015.3 1012.9 0.0
10/09:00pm 20.7 21.4 17.1 80 2.2 ESE 9 13 5 7 1015.0 1012.6 0.0
10/08:30pm 21.1 21.8 17.1 78 2.5 E 9 15 5 8 1014.7 1012.3 0.0
10/08:00pm 22.0 21.6 17.2 74 3.0 ESE 15 20 8 11 1014.3 1011.8 0.0
10/07:30pm 22.8 22.3 16.8 69 3.7 ESE 15 20 8 11 1013.8 1011.4 0.0
10/07:00pm 23.4 22.4 16.7 66 4.2 ESE 17 26 9 14 1013.5 1011.1 0.0
10/06:30pm 24.6 23.8 16.1 59 5.3 ESE 15 19 8 10 1013.1 1010.7 0.0
10/06:00pm 26.0 24.5 15.4 52 6.5 ESE 17 24 9 13 1012.7 1010.3 0.0
10/05:30pm 27.5 27.1 15.2 47 7.6 ESE 11 19 6 10 1012.3 1009.8 0.0
10/05:00pm 27.4 27.6 15.7 48 7.3 SE 9 13 5 7 1012.2 1009.7 0.0
10/04:30pm 28.1 26.9 14.0 42 8.6 SSE 13 17 7 9 1012.0 1009.5 0.0
10/04:00pm 28.3 28.2 14.9 44 8.3 ESE 9 15 5 8 1012.0 1009.5 0.0
10/03:30pm 27.3 25.8 14.3 45 7.9 SE 15 24 8 13 1012.3 1009.8 0.0
10/03:00pm 27.7 26.2 14.3 43 8.2 ESE 15 22 8 12 1012.4 1009.9 0.0
10/02:30pm 27.6 26.9 15.3 47 7.6 SE 13 20 7 11 1012.7 1010.3 0.0
10/02:00pm 27.8 27.9 16.4 50 7.2 ESE 11 19 6 10 1013.1 1010.7 0.0
10/01:30pm 26.4 25.3 15.4 50 6.8 ESE 15 22 8 12 1013.6 1011.2 0.0
10/01:00pm 25.8 24.7 15.2 52 6.5 SE 15 24 8 13 1014.0 1011.5 0.0
10/12:30pm 25.9 24.5 15.6 53 6.4 ESE 17 28 9 15 1014.2 1011.7 0.0
10/12:00pm 25.4 23.9 15.4 54 6.2 E 17 28 9 15 1014.5 1012.0 0.0
10/11:30am 25.1 23.5 15.1 53 6.1 SE 17 24 9 13 1014.7 1012.3 0.0
10/11:00am 24.4 23.7 15.3 57 5.6 ESE 13 20 7 11 1015.0 1012.6 0.0
10/10:30am 24.6 23.7 15.8 58 5.4 SE 15 20 8 11 1015.3 1012.9 0.0
10/10:00am 23.9 22.6 15.9 61 4.9 SE 17 24 9 13 1015.6 1013.2 0.0
10/09:30am 23.4 21.7 16.2 64 4.5 SSE 20 30 11 16 1015.6 1013.2 0.0
10/09:00am 23.3 21.7 16.1 64 4.4 SE 19 26 10 14 1015.7 1013.3 0.0
10/08:30am 21.7 19.6 15.1 66 4.0 SE 20 32 11 17 1015.6 1013.2 0.0
10/08:00am 21.4 19.3 15.3 68 3.7 SSE 20 30 11 16 1015.5 1013.1 0.0
10/07:30am 20.6 17.9 15.6 73 3.0 SSE 24 33 13 18 1015.2 1012.8 0.0
10/07:00am 18.7 16.6 15.2 80 2.1 S 20 24 11 13 1014.9 1012.5 0.0
10/06:30am 18.0 16.4 15.1 83 1.7 SSE 17 20 9 11 1014.7 1012.3 0.0
10/06:00am 16.6 13.8 14.4 87 1.3 S 22 26 12 14 1014.4 1011.9 0.0
10/05:30am 16.6 14.2 14.4 87 1.3 S 20 24 11 13 1014.3 1011.8 0.0
10/05:00am 15.9 13.6 14.1 89 1.0 S 19 20 10 11 1014.1 1011.6 0.0
10/04:30am 16.0 13.7 14.2 89 1.0 S 19 20 10 11 1014.0 1011.5 0.0
10/04:00am 16.3 15.1 14.1 87 1.3 SSE 13 19 7 10 1013.8 1011.4 0.0
10/03:30am 16.6 14.3 14.2 86 1.4 S 19 20 10 11 1013.8 1011.4 0.0
10/03:00am 17.6 16.4 13.9 79 2.2 SSE 13 20 7 11 1014.1 1011.6 0.0
10/02:30am 17.7 16.3 14.4 81 1.9 S 15 22 8 12 1014.1 1011.6 0.0
10/02:00am 17.7 17.5 14.8 83 1.7 SSE 9 11 5 6 1014.5 1012.0 0.0
10/01:30am 18.7 18.0 14.2 75 2.6 SE 11 15 6 8 1014.7 1012.3 0.0
10/01:00am 18.4 17.6 14.1 76 2.5 SSE 11 15 6 8 1015.0 1012.6 0.0
10/12:30am 18.1 16.5 14.0 77 2.4 SE 15 20 8 11 1015.3 1012.9 0.0
10/12:00am 18.1 17.4 14.4 79 2.2 SE 11 17 6 9 1015.6 1013.2 0.0
 
Date/Time
EST
Tmp

°C
App
Tmp
°C
Dew
Point
°C
Rel
Hum
%
Delta-T

°C
Wind Press
QNH
hPa
Press
MSL
hPa
Rain
since
9 am
mm
Dir
 
Spd
km/h
Gust
km/h
Spd
kts
Gust
kts
09/11:30pm 17.5 17.7 14.8 84 1.6 SE 7 11 4 6 1016.0 1013.6 0.0
09/11:00pm 17.7 17.5 14.8 83 1.7 SSE 9 13 5 7 1016.5 1014.0 0.0
09/10:30pm 18.6 18.4 14.7 78 2.3 SE 9 13 5 7 1016.7 1014.3 0.0
09/10:00pm 19.6 19.1 15.0 75 2.7 ESE 11 19 6 10 1017.0 1014.6 0.0
09/09:30pm 19.9 19.2 15.3 75 2.8 ESE 13 19 7 10 1017.1 1014.7 0.0
09/09:00pm 18.9 18.8 15.0 78 2.3 ESE 9 13 5 7 1017.2 1014.8 0.0
09/08:30pm 20.2 19.4 15.0 72 3.1 ESE 13 19 7 10 1016.8 1014.4 0.0
09/08:00pm 21.1 20.0 15.2 69 3.6 E 15 20 8 11 1016.6 1014.1 0.0
09/07:30pm 22.0 21.1 15.8 68 3.8 E 15 26 8 14 1016.4 1013.9 0.0
09/07:00pm 23.0 21.8 16.1 65 4.3 E 17 24 9 13 1016.0 1013.6 0.0
09/06:30pm 23.5 22.7 16.1 63 4.6 ESE 15 20 8 11 1015.5 1013.1 0.0
09/06:00pm 24.8 23.0 16.0 58 5.5 ESE 20 30 11 16 1015.0 1012.6 0.0
09/05:30pm 25.7 24.1 15.1 52 6.5 ESE 17 26 9 14 1014.6 1012.1 0.0
09/05:00pm 26.3 25.1 16.0 53 6.4 ESE 17 26 9 14 1014.5 1012.0 0.0
09/04:30pm 26.8 25.9 15.8 51 6.9 ESE 15 20 8 11 1014.3 1011.8 0.0
09/04:00pm 28.0 26.5 16.3 49 7.4 ESE 19 32 10 17 1014.3 1011.8 0.0
09/03:30pm 28.0 26.6 15.6 46 7.7 E 17 28 9 15 1014.4 1011.9 0.0
09/03:00pm 27.8 26.0 14.4 43 8.2 SE 17 24 9 13 1014.6 1012.1 0.0
09/02:30pm 28.1 27.0 16.4 49 7.4 ESE 17 28 9 15 1014.8 1012.4 0.0
09/02:00pm 26.7 24.9 15.4 50 7.0 E 19 33 10 18 1015.2 1012.8 0.0
09/01:30pm 27.5 25.0 14.2 44 8.1 SE 20 28 11 15 1015.4 1013.0 0.0
09/01:00pm 27.1 24.9 14.8 47 7.5 ESE 20 30 11 16 1015.7 1013.3 0.0
09/12:30pm 26.8 24.8 15.5 50 7.0 ESE 20 32 11 17 1015.8 1013.4 0.0
09/12:00pm 25.9 23.5 14.4 49 7.0 SE 20 35 11 19 1016.0 1013.6 0.0
09/11:30am 26.0 23.5 14.1 47 7.2 ESE 20 32 11 17 1016.4 1013.9 0.0
09/11:00am 25.3 23.4 15.3 54 6.1 ESE 19 30 10 16 1016.7 1014.3 0.0
09/10:30am 24.8 22.8 16.5 60 5.2 SE 22 35 12 19 1017.0 1014.6 0.0
09/10:00am 24.4 21.2 15.3 57 5.6 ESE 26 37 14 20 1017.2 1014.8 0.0
09/09:30am 23.7 21.1 16.0 62 4.8 SE 24 37 13 20 1017.5 1015.1 0.0
09/09:00am 22.6 20.3 15.7 65 4.2 SE 22 37 12 20 1017.5 1015.1 0.0
09/08:30am 21.7 19.8 15.8 69 3.6 SE 20 32 11 17 1017.4 1015.0 0.0
09/08:00am 20.8 18.9 15.8 73 3.0 SE 20 30 11 16 1017.3 1014.9 0.0
09/07:30am 20.0 18.5 16.2 79 2.3 SSE 19 28 10 15 1017.1 1014.7 0.0
09/07:00am 18.9 18.1 16.1 84 1.7 SSE 15 22 8 12 1016.8 1014.4 0.0
09/06:30am 17.8 18.2 16.3 91 0.9 SSE 9 15 5 8 1016.7 1014.3 0.0
09/06:00am 15.9 16.2 15.1 95 0.5 SSE 7 11 4 6 1016.5 1014.0 0.0
09/05:30am 15.2 15.2 14.2 94 0.6 SSE 7 9 4 5 1016.1 1013.7 0.0
09/05:00am 15.3 15.3 14.2 93 0.6 SSE 7 9 4 5 1015.6 1013.2 0.0
09/04:30am 15.8 16.0 14.8 94 0.6 S 7 9 4 5 1015.5 1013.1 0.0
09/04:00am 15.9 15.6 14.4 91 0.9 S 9 11 5 6 1015.3 1012.9 0.0
09/03:30am 16.8 16.5 15.5 92 0.8 SSE 11 13 6 7 1015.3 1012.9 0.0
09/03:00am 17.2 17.5 15.9 92 0.8 SSE 9 13 5 7 1015.3 1012.9 0.0
09/02:30am 17.3 18.1 16.3 94 0.6 SSE 7 9 4 5 1015.4 1013.0 0.0
09/02:00am 16.9 17.0 15.4 91 0.9 SSE 9 9 5 5 1015.5 1013.1 0.0
09/01:30am 17.9 17.7 16.6 92 0.8 SSE 13 15 7 8 1015.6 1013.2 0.0
09/01:00am 18.9 19.3 17.2 90 1.1 SE 11 19 6 10 1015.9 1013.5 0.0
09/12:30am 18.6 18.8 16.8 89 1.1 ESE 11 15 6 8 1016.1 1013.7 0.0
09/12:00am 19.0 19.0 17.1 89 1.2 ESE 13 17 7 9 1016.2 1013.8 0.0
 
Date/Time
EST
Tmp

°C
App
Tmp
°C
Dew
Point
°C
Rel
Hum
%
Delta-T

°C
Wind Press
QNH
hPa
Press
MSL
hPa
Rain
since
9 am
mm
Dir
 
Spd
km/h
Gust
km/h
Spd
kts
Gust
kts
08/11:30pm 19.1 19.8 17.1 88 1.2 SE 9 15 5 8 1016.6 1014.1 0.0
08/11:00pm 19.4 20.0 16.8 85 1.6 SE 9 15 5 8 1016.9 1014.5 0.0
08/10:30pm 19.0 20.0 16.4 85 1.6 SE 6 9 3 5 1017.0 1014.6 0.0
08/10:00pm 19.3 19.8 16.5 84 1.7 ESE 9 11 5 6 1016.9 1014.5 0.0
08/09:30pm 19.5 20.0 16.5 83 1.8 ESE 9 13 5 7 1016.7 1014.3 0.0
08/09:00pm 19.9 20.5 16.7 82 2.0 E 9 13 5 7 1016.7 1014.3 0.0
08/08:30pm 20.3 20.6 16.9 81 2.1 E 11 13 6 7 1016.6 1014.1 0.0
08/08:00pm 21.3 21.0 16.5 74 3.0 ESE 13 15 7 8 1016.1 1013.7 0.0
08/07:30pm 22.3 21.9 16.3 69 3.7 ESE 13 20 7 11 1015.6 1013.2 0.0
08/07:00pm 22.9 21.9 15.7 64 4.4 ESE 15 20 8 11 1015.2 1012.8 0.0
08/06:30pm 23.9 24.0 15.4 59 5.2 ESE 9 13 5 7 1014.9 1012.5 0.0
08/06:00pm 25.5 23.9 14.9 52 6.5 ESE 17 26 9 14 1014.4 1011.9 0.0
08/05:30pm 26.7 24.9 13.4 43 8.0 ESE 15 20 8 11 1014.0 1011.5 0.0
08/05:00pm 27.2 25.5 12.4 40 8.8 SE 13 20 7 11 1013.7 1011.3 0.0
08/04:30pm 27.1 25.3 13.4 42 8.2 SE 15 20 8 11 1013.7 1011.3 0.0
08/04:00pm 27.4 26.0 14.4 45 7.9 ESE 15 24 8 13 1013.7 1011.3 0.0
08/03:30pm 26.5 24.1 13.9 45 7.6 ESE 19 28 10 15 1014.0 1011.5 0.0
08/03:00pm 26.9 25.0 14.3 46 7.7 ESE 17 28 9 15 1014.2 1011.7 0.0
08/02:30pm 27.5 26.5 15.5 48 7.5 SE 15 26 8 14 1014.5 1012.0 0.0
08/02:00pm 27.3 26.2 14.3 45 7.9 SE 13 22 7 12 1014.8 1012.4 0.0
08/01:30pm 26.8 25.5 14.9 48 7.3 SE 15 26 8 14 1015.1 1012.7 0.0
08/01:00pm 26.7 25.1 16.0 52 6.7 ESE 19 28 10 15 1015.3 1012.9 0.0
08/12:30pm 25.9 24.0 15.3 52 6.5 SE 19 33 10 18 1015.6 1013.2 0.0
08/12:00pm 26.0 24.8 16.0 54 6.2 SE 17 28 9 15 1015.9 1013.5 0.0
08/11:30am 24.9 23.6 15.8 57 5.6 SE 17 24 9 13 1016.1 1013.7 0.0
08/11:00am 25.1 23.6 15.4 55 6.0 ESE 17 28 9 15 1016.7 1014.3 0.0
08/10:30am 25.2 24.7 16.9 60 5.2 SE 15 22 8 12 1017.0 1014.6 0.0
08/10:00am 24.0 22.7 15.8 60 5.0 ESE 17 24 9 13 1017.3 1014.9 0.0
08/09:30am 22.8 20.9 15.1 62 4.7 SE 19 28 10 15 1017.5 1015.1 0.0
08/09:00am 22.1 19.6 14.2 61 4.7 SE 20 28 11 15 1017.4 1015.0 0.0
08/08:30am 22.1 19.8 14.7 63 4.4 SE 20 30 11 16 1017.5 1015.1 0.0
08/08:00am 21.8 20.6 16.1 70 3.5 ESE 17 24 9 13 1017.4 1015.0 0.0
08/07:30am 20.8 19.9 14.9 69 3.5 SE 13 22 7 12 1017.3 1014.9 0.0
08/07:00am 19.9 19.1 15.1 74 2.9 SE 13 17 7 9 1017.0 1014.6 0.0
08/06:30am 19.0 18.7 15.5 80 2.1 SE 11 15 6 8 1016.9 1014.5 0.0

Latest Capital City Observations: Canberra | Sydney | Melbourne | Brisbane | Adelaide | Perth | Hobart | Darwin

Other Formats:

Comma delimited format used in spreadsheet applications
http://www.bom.gov.au/fwo/IDQ60901/IDQ60901.94549.axf

JavaScript Object Notation format (JSON) in row-major order
http://www.bom.gov.au/fwo/IDQ60901/IDQ60901.94549.json